Terminal Aerodrome Forecast
Issued by NWS

Home | Current Version | Previous Version | Text Only | Print | Product List | Glossary On
Versions: 1 2 3 4 5 6 7 8 9 10 11 12 13 14 15 16 17 18 19
026
FTUS44 KLIX 161731
TAFGPT
TAF
KGPT 161731Z 1618/1718 15010KT P6SM BKN110
     FM170500 15007KT P6SM BKN025
     FM170600 16007KT 3SM BR BKN008
      TEMPO 1711/1715 2SM BR VV002
     FM171600 17006KT P6SM BKN008
     FM171700 18006KT P6SM BKN015=

USA.gov is the U.S. government's official web portal to all federal, state and local government web resources and services.